Time;durP1;ratioP1;P1;durP2;ratioP2;P2;SDS_P1;SDS_P2;PMS_P1;PMS_P2;Temp;Humidity;BMP_temperature;BMP_pressure;BME280_temperature;BME280_humidity;BME280_pressure;Samples;Min_cycle;Max_cycle;Signal;HPM_P1;HPM_P2
2021/04/16 00:01:37;;;;;;;;;;;;;;;6.74;80.59;101377.41;1827522;78;20145;-79
2021/04/16 00:04:06;;;;;;;;;;;;;;;6.59;82.07;101375.42;1826955;78;20172;-81
2021/04/16 00:06:37;;;;;;;;;;;;;;;6.46;83.02;101381.94;1827185;78;20490;-80
2021/04/16 00:09:08;;;;;;;;;;;;;;;6.33;84.10;101384.14;1827635;78;22225;-80
2021/04/16 00:11:38;;;;;;;;;;;;;;;6.26;84.74;101379.25;1827334;78;20475;-79
2021/04/16 00:14:07;;;;;;;;;;;;;;;6.22;85.18;101382.39;1828403;78;20494;-80
2021/04/16 00:16:34;;;;;;;;;;;;;;;6.21;85.53;101389.75;1827839;78;20291;-78
2021/04/16 00:19:04;;;;;;;;;;;;;;;6.20;85.57;101381.61;1827067;78;20217;-77
2021/04/16 00:21:33;;;;;;;;;;;;;;;6.21;85.62;101374.73;1827359;78;22211;-78
2021/04/16 00:24:01;;;;;;;;;;;;;;;6.21;85.69;101367.84;1827232;78;20124;-77
2021/04/16 00:26:30;;;;;;;;;;;;;;;6.22;85.78;101362.25;1827108;78;20533;-77
2021/04/16 00:28:58;;;;;;;;;;;;;;;6.15;86.09;101355.19;1826855;78;20299;-77
2021/04/16 00:31:28;;;;;;;;;;;;;;;6.08;86.88;101347.28;1826968;78;20248;-77
2021/04/16 00:33:56;;;;;;;;;;;;;;;6.03;87.59;101344.48;1827156;78;22085;-76
2021/04/16 00:36:24;;;;;;;;;;;;;;;5.98;88.14;101334.78;1826872;78;20403;-77
2021/04/16 00:38:52;;;;;;;;;;;;;;;5.94;88.95;101322.45;1827090;78;20220;-76
2021/04/16 00:41:22;;;;;;;;;;;;;;;5.90;89.50;101312.34;1827006;78;20109;-76
2021/04/16 00:43:50;;;;;;;;;;;;;;;5.84;89.86;101319.34;1826793;78;20498;-77
2021/04/16 00:46:29;;;;;;;;;;;;;;;5.78;90.20;101331.16;1826782;78;20671;-77
2021/04/16 00:49:01;;;;;;;;;;;;;;;5.73;90.56;101347.67;1826859;78;20300;-77
2021/04/16 00:51:40;;;;;;;;;;;;;;;5.67;90.80;101347.89;1827116;78;20219;-77
2021/04/16 00:54:11;;;;;;;;;;;;;;;5.63;91.27;101350.16;1827091;78;20291;-77
2021/04/16 00:56:38;;;;;;;;;;;;;;;5.61;91.41;101354.09;1826424;78;20238;-77
2021/04/16 00:59:07;;;;;;;;;;;;;;;5.57;91.12;101351.22;1826851;78;22229;-77
2021/04/16 01:01:34;;;;;;;;;;;;;;;5.54;90.81;101351.33;1826947;78;20132;-76
2021/04/16 01:04:04;;;;;;;;;;;;;;;5.48;90.57;101341.69;1826988;78;20251;-77
2021/04/16 01:06:32;;;;;;;;;;;;;;;5.41;90.74;101341.05;1826828;78;20235;-77
2021/04/16 01:09:01;;;;;;;;;;;;;;;5.37;91.15;101334.77;1826932;78;20132;-77
2021/04/16 01:11:29;;;;;;;;;;;;;;;5.37;91.58;101341.20;1826988;78;21198;-77
2021/04/16 01:13:58;;;;;;;;;;;;;;;5.37;91.88;101335.61;1826746;78;20188;-77
2021/04/16 01:16:30;;;;;;;;;;;;;;;5.39;92.22;101331.71;1827175;78;20224;-77
2021/04/16 01:18:58;;;;;;;;;;;;;;;5.44;92.58;101333.67;1827087;78;20132;-77
2021/04/16 01:21:35;;;;;;;;;;;;;;;5.51;92.65;101335.99;1827099;78;20498;-78
2021/04/16 01:24:24;;;;;;;;;;;;;;;5.59;92.68;101333.98;1826882;78;21358;-78
2021/04/16 01:26:52;;;;;;;;;;;;;;;5.68;92.83;101333.65;1827114;78;20161;-78
2021/04/16 01:29:20;;;;;;;;;;;;;;;5.76;92.75;101334.69;1826907;78;20129;-78
2021/04/16 01:31:47;;;;;;;;;;;;;;;5.78;92.52;101335.02;1826932;78;20718;-77
2021/04/16 01:34:19;;;;;;;;;;;;;;;5.79;92.42;101332.84;1827211;78;20578;-77
2021/04/16 01:36:50;;;;;;;;;;;;;;;5.83;92.56;101331.84;1826891;78;22193;-78
2021/04/16 01:39:20;;;;;;;;;;;;;;;5.93;92.69;101340.12;1796464;78;20141;-77
2021/04/16 01:41:47;;;;;;;;;;;;;;;6.04;92.56;101343.56;1827119;78;20223;-77
2021/04/16 01:44:18;;;;;;;;;;;;;;;6.12;92.47;101338.99;1827045;78;20140;-77
2021/04/16 01:46:51;;;;;;;;;;;;;;;6.20;92.32;101344.69;1825467;78;20247;-77
2021/04/16 01:49:21;;;;;;;;;;;;;;;6.28;92.14;101346.55;1825085;78;21376;-77
2021/04/16 01:51:49;;;;;;;;;;;;;;;6.31;91.79;101339.55;1824863;78;20109;-77
2021/04/16 01:54:23;;;;;;;;;;;;;;;6.34;91.77;101336.00;1824793;78;20275;-77
2021/04/16 01:56:53;;;;;;;;;;;;;;;6.37;91.67;101332.02;1824777;78;20551;-77
2021/04/16 01:59:25;;;;;;;;;;;;;;;6.39;91.69;101333.64;1825216;78;20187;-77
2021/04/16 02:01:53;;;;;;;;;;;;;;;6.45;91.65;101336.87;1825010;78;21113;-77
2021/04/16 02:04:22;;;;;;;;;;;;;;;6.50;91.41;101342.27;1824873;77;20204;-77
2021/04/16 02:06:52;;;;;;;;;;;;;;;6.53;91.15;101343.88;1825073;78;20140;-77
2021/04/16 02:09:22;;;;;;;;;;;;;;;6.54;90.98;101344.28;1824912;78;20215;-77
2021/04/16 02:11:50;;;;;;;;;;;;;;;6.55;91.15;101348.52;1824776;78;20478;-77
2021/04/16 02:14:21;;;;;;;;;;;;;;;6.53;91.12;101351.17;1824872;78;21120;-77
2021/04/16 02:16:51;;;;;;;;;;;;;;;6.53;91.18;101352.45;1824801;78;20208;-77
2021/04/16 02:19:20;;;;;;;;;;;;;;;6.54;91.27;101353.30;1824769;78;20208;-77
2021/04/16 02:21:49;;;;;;;;;;;;;;;6.51;91.19;101355.52;1824970;78;20220;-78
2021/04/16 02:24:16;;;;;;;;;;;;;;;6.52;91.41;101358.50;1824951;78;20598;-77
2021/04/16 02:26:44;;;;;;;;;;;;;;;6.54;91.53;101364.91;1825160;78;21190;-78
2021/04/16 02:29:13;;;;;;;;;;;;;;;6.56;91.52;101360.08;1825231;78;20213;-77
2021/04/16 02:31:44;;;;;;;;;;;;;;;6.61;91.74;101365.03;1825148;78;20157;-78
2021/04/16 02:34:13;;;;;;;;;;;;;;;6.66;91.84;101369.59;1825036;78;20232;-77
2021/04/16 02:36:41;;;;;;;;;;;;;;;6.69;91.68;101374.62;1825253;78;20132;-77
2021/04/16 02:39:09;;;;;;;;;;;;;;;6.71;91.36;101384.42;1824875;78;21197;-77
2021/04/16 02:41:37;;;;;;;;;;;;;;;6.71;91.00;101390.88;1824966;78;20224;-75
2021/04/16 02:44:06;;;;;;;;;;;;;;;6.72;90.83;101391.27;1824885;78;20148;-76
2021/04/16 02:46:34;;;;;;;;;;;;;;;6.68;90.01;101393.56;1825923;78;20333;-75
2021/04/16 02:49:02;;;;;;;;;;;;;;;6.60;89.89;101390.02;1826949;78;20279;-76
2021/04/16 02:51:30;;;;;;;;;;;;;;;6.55;89.77;101403.51;1827137;78;22630;-77
2021/04/16 02:53:58;;;;;;;;;;;;;;;6.55;89.84;101397.06;1826929;78;20179;-76
2021/04/16 02:56:27;;;;;;;;;;;;;;;6.58;89.86;101400.81;1827048;78;20141;-77
2021/04/16 02:58:57;;;;;;;;;;;;;;;6.59;89.61;101396.50;1826853;78;20208;-77
2021/04/16 03:01:26;;;;;;;;;;;;;;;6.59;89.36;101401.22;1827227;78;20465;-77
2021/04/16 03:03:54;;;;;;;;;;;;;;;6.58;89.28;101406.41;1826899;78;21431;-76
2021/04/16 03:06:22;;;;;;;;;;;;;;;6.59;89.34;101403.79;1826655;78;20160;-76
2021/04/16 03:08:54;;;;;;;;;;;;;;;6.62;89.18;101404.97;1826826;78;20528;-77
2021/04/16 03:11:22;;;;;;;;;;;;;;;6.62;89.07;101406.25;1826869;78;20241;-77
2021/04/16 03:13:49;;;;;;;;;;;;;;;6.65;89.08;101409.16;1827070;78;20230;-77
2021/04/16 03:16:18;;;;;;;;;;;;;;;6.68;89.13;101417.63;1827030;78;22125;-77
2021/04/16 03:18:45;;;;;;;;;;;;;;;6.73;89.01;101421.33;1827045;78;20148;-77
2021/04/16 03:21:15;;;;;;;;;;;;;;;6.79;89.17;101412.91;1827104;78;20208;-77
2021/04/16 03:23:43;;;;;;;;;;;;;;;6.84;89.28;101412.27;1827311;78;20615;-77
2021/04/16 03:26:13;;;;;;;;;;;;;;;6.88;89.22;101409.97;1826900;78;20275;-77
2021/04/16 03:28:41;;;;;;;;;;;;;;;6.90;89.45;101414.61;1827232;78;21275;-77
2021/04/16 03:31:08;;;;;;;;;;;;;;;6.94;89.94;101412.76;1827073;78;20522;-76
2021/04/16 03:33:37;;;;;;;;;;;;;;;6.97;89.87;101414.37;1826964;78;20208;-76
2021/04/16 03:36:07;;;;;;;;;;;;;;;6.99;89.44;101411.30;1826944;78;20219;-76
2021/04/16 03:38:35;;;;;;;;;;;;;;;7.01;89.56;101411.62;1795614;78;20240;-76
2021/04/16 03:41:03;;;;;;;;;;;;;;;7.02;89.91;101406.02;1826801;78;21700;-76
2021/04/16 03:43:30;;;;;;;;;;;;;;;7.02;90.31;101409.89;1826952;78;20144;-76
2021/04/16 03:46:00;;;;;;;;;;;;;;;6.97;90.50;101406.19;1827759;78;20156;-78
2021/04/16 03:48:28;;;;;;;;;;;;;;;6.89;90.90;101407.77;1833076;78;20136;-78
2021/04/16 03:50:57;;;;;;;;;;;;;;;6.86;91.46;101416.91;1833120;78;20168;-78
2021/04/16 03:53:25;;;;;;;;;;;;;;;6.87;92.12;101424.20;1833149;78;22112;-77
2021/04/16 03:55:55;;;;;;;;;;;;;;;6.88;92.56;101426.74;1832836;78;20271;-78
2021/04/16 03:58:22;;;;;;;;;;;;;;;6.87;92.96;101421.19;1832795;78;20219;-81
2021/04/16 04:00:51;;;;;;;;;;;;;;;6.85;93.31;101432.02;1832798;78;20248;-79
2021/04/16 04:03:21;;;;;;;;;;;;;;;6.82;94.00;101431.30;1832952;78;20216;-78
2021/04/16 04:05:48;;;;;;;;;;;;;;;6.79;94.46;101437.86;1832963;78;22104;-78
2021/04/16 04:08:17;;;;;;;;;;;;;;;6.78;94.85;101436.17;1832639;78;20212;-80
2021/04/16 04:10:47;;;;;;;;;;;;;;;6.77;95.14;101443.06;1832949;78;20140;-78
2021/04/16 04:13:17;;;;;;;;;;;;;;;6.77;95.43;101440.93;1833098;78;20144;-79
2021/04/16 04:15:45;;;;;;;;;;;;;;;6.77;95.49;101437.06;1832810;78;20239;-78
2021/04/16 04:18:14;;;;;;;;;;;;;;;6.75;95.55;101441.00;1828868;78;21195;-78
2021/04/16 04:20:42;;;;;;;;;;;;;;;6.73;95.68;101445.84;1832965;78;20125;-77
2021/04/16 04:23:10;;;;;;;;;;;;;;;6.68;95.69;101445.99;1833072;78;20125;-77
2021/04/16 04:25:38;;;;;;;;;;;;;;;6.65;95.92;101446.55;1832741;78;20584;-79
2021/04/16 04:28:06;;;;;;;;;;;;;;;6.66;96.18;101443.09;1832978;78;20291;-77
2021/04/16 04:30:35;;;;;;;;;;;;;;;6.62;96.26;101447.96;1833063;78;21192;-76
2021/04/16 04:33:04;;;;;;;;;;;;;;;6.53;96.40;101449.59;1832710;78;20195;-77
2021/04/16 04:35:34;;;;;;;;;;;;;;;6.41;96.67;101445.73;1833340;78;20295;-77
2021/04/16 04:38:02;;;;;;;;;;;;;;;6.35;96.73;101447.22;1833026;78;20140;-77
2021/04/16 04:40:30;;;;;;;;;;;;;;;6.29;96.92;101447.44;1833057;78;20129;-76
2021/04/16 04:42:58;;;;;;;;;;;;;;;6.16;97.09;101459.08;1832930;78;21277;-75
2021/04/16 04:45:25;;;;;;;;;;;;;;;6.07;97.74;101461.98;1832856;78;20293;-76
2021/04/16 04:47:53;;;;;;;;;;;;;;;5.94;98.46;101460.27;1828119;77;20295;-76
2021/04/16 04:50:21;;;;;;;;;;;;;;;5.83;99.08;101455.91;1826774;78;20156;-75
2021/04/16 04:52:49;;;;;;;;;;;;;;;5.77;100.00;101464.70;1826770;78;20216;-76
2021/04/16 04:55:22;;;;;;;;;;;;;;;5.75;100.00;101460.47;1827132;78;21738;-77
2021/04/16 04:57:50;;;;;;;;;;;;;;;5.77;100.00;101458.26;1826709;78;20354;-75
2021/04/16 05:00:19;;;;;;;;;;;;;;;5.82;100.00;101456.36;1827059;78;20513;-77
2021/04/16 05:02:47;;;;;;;;;;;;;;;5.83;100.00;101455.47;1827133;78;20675;-75
2021/04/16 05:05:15;;;;;;;;;;;;;;;5.90;100.00;101459.16;1827239;78;20521;-79
2021/04/16 05:07:44;;;;;;;;;;;;;;;5.94;100.00;101456.84;1827437;78;21295;-77
2021/04/16 05:10:12;;;;;;;;;;;;;;;6.03;100.00;101459.95;1827279;78;20227;-76
2021/04/16 05:12:39;;;;;;;;;;;;;;;6.17;100.00;101459.48;1826873;78;20149;-76
2021/04/16 05:15:09;;;;;;;;;;;;;;;6.26;100.00;101461.73;1827078;78;20719;-79
2021/04/16 05:17:38;;;;;;;;;;;;;;;6.35;100.00;101457.09;1827673;78;20145;-79
2021/04/16 05:20:07;;;;;;;;;;;;;;;6.48;100.00;101457.48;1828159;78;21355;-80
2021/04/16 05:22:35;;;;;;;;;;;;;;;6.63;100.00;101461.25;1827364;78;20136;-79
2021/04/16 05:25:04;;;;;;;;;;;;;;;6.72;100.00;101460.91;1827115;78;20675;-80
2021/04/16 05:27:32;;;;;;;;;;;;;;;6.76;100.00;101466.36;1826875;78;20310;-78
2021/04/16 05:29:59;;;;;;;;;;;;;;;6.77;100.00;101462.86;1827228;78;20220;-78
2021/04/16 05:32:27;;;;;;;;;;;;;;;6.77;100.00;101471.44;1827403;78;21197;-78
2021/04/16 05:34:55;;;;;;;;;;;;;;;6.77;100.00;101469.30;1826995;78;20148;-76
2021/04/16 05:37:24;;;;;;;;;;;;;;;6.77;100.00;101470.59;1827079;78;20557;-77
2021/04/16 05:39:52;;;;;;;;;;;;;;;6.74;100.00;101461.68;1826988;78;20228;-80
2021/04/16 05:42:23;;;;;;;;;;;;;;;6.78;100.00;101462.81;1826881;78;20231;-78
2021/04/16 05:44:50;;;;;;;;;;;;;;;6.79;100.00;101467.53;1826891;78;21350;-75
2021/04/16 05:47:19;;;;;;;;;;;;;;;6.87;100.00;101462.91;1829827;78;20240;-78
2021/04/16 05:49:49;;;;;;;;;;;;;;;6.92;99.56;101456.66;1833135;78;20133;-80
2021/04/16 05:52:17;;;;;;;;;;;;;;;7.00;98.88;101461.55;1833543;78;20148;-77
2021/04/16 05:54:46;;;;;;;;;;;;;;;7.11;98.55;101452.11;1833296;78;20208;-76
2021/04/16 05:57:14;;;;;;;;;;;;;;;7.20;96.89;101455.16;1833062;78;22257;-78
2021/04/16 05:59:46;;;;;;;;;;;;;;;7.28;95.05;101457.42;1833683;78;20665;-78
2021/04/16 06:02:28;;;;;;;;;;;;;;;7.32;94.20;101453.83;1824595;78;20249;-78
2021/04/16 06:04:59;;;;;;;;;;;;;;;7.34;93.49;101454.59;1822947;78;20243;-78
2021/04/16 06:07:29;;;;;;;;;;;;;;;7.40;92.91;101463.41;1835196;78;20503;-76
2021/04/16 06:09:59;;;;;;;;;;;;;;;7.43;92.70;101459.42;1833917;78;20323;-77
2021/04/16 06:12:27;;;;;;;;;;;;;;;7.41;91.96;101458.17;1834094;78;20140;-78
2021/04/16 06:14:56;;;;;;;;;;;;;;;7.37;91.23;101464.35;1834252;78;20199;-77
2021/04/16 06:17:26;;;;;;;;;;;;;;;7.35;90.35;101468.75;1834696;78;20212;-77
2021/04/16 06:19:55;;;;;;;;;;;;;;;7.42;91.01;101470.64;1833531;78;20569;-76
2021/04/16 06:22:23;;;;;;;;;;;;;;;7.62;89.12;101461.64;1833047;78;21294;-75
2021/04/16 06:24:52;;;;;;;;;;;;;;;7.81;85.46;101474.64;1832696;78;20271;-75
2021/04/16 06:27:20;;;;;;;;;;;;;;;7.93;83.84;101472.82;1833001;78;20152;-78
2021/04/16 06:29:48;;;;;;;;;;;;;;;8.08;83.95;101475.20;1833247;78;20226;-77
2021/04/16 06:32:17;;;;;;;;;;;;;;;8.29;83.34;101471.29;1809367;78;20520;-78
2021/04/16 06:34:45;;;;;;;;;;;;;;;8.51;80.16;101468.59;1774288;79;22149;-76
2021/04/16 06:37:13;;;;;;;;;;;;;;;8.64;78.69;101468.43;1800655;79;20192;-79
2021/04/16 06:39:44;;;;;;;;;;;;;;;8.74;78.22;101469.66;1801365;79;20166;-76
2021/04/16 06:42:20;;;;;;;;;;;;;;;8.88;77.49;101467.30;1801332;79;20244;-80
2021/04/16 06:44:48;;;;;;;;;;;;;;;9.02;77.04;101471.84;1795490;78;20726;-76
2021/04/16 06:47:24;;;;;;;;;;;;;;;9.19;76.77;101468.47;1803291;79;23430;-76
2021/04/16 06:49:52;;;;;;;;;;;;;;;9.29;75.85;101468.39;1803549;78;20211;-76
2021/04/16 06:52:34;;;;;;;;;;;;;;;9.32;75.54;101469.53;1804416;78;20228;-79
2021/04/16 06:55:12;;;;;;;;;;;;;;;9.37;75.83;101464.55;1803348;79;20259;-76
2021/04/16 06:57:47;;;;;;;;;;;;;;;9.56;75.68;101474.40;1803783;79;20132;-76
2021/04/16 07:00:25;;;;;;;;;;;;;;;9.69;73.63;101459.53;1804146;79;21370;-74
2021/04/16 07:03:04;;;;;;;;;;;;;;;9.73;72.29;101464.47;1803471;78;20261;-76
2021/04/16 07:05:38;;;;;;;;;;;;;;;9.86;71.60;101464.73;1803887;79;20121;-74
2021/04/16 07:08:06;;;;;;;;;;;;;;;9.94;70.47;101472.49;1802328;79;20317;-75
2021/04/16 07:10:39;;;;;;;;;;;;;;;10.00;70.61;101478.66;1803283;79;20279;-76
2021/04/16 07:13:13;;;;;;;;;;;;;;;10.15;70.75;101480.95;1803463;79;20229;-76
2021/04/16 07:15:43;;;;;;;;;;;;;;;10.19;67.21;101481.19;1802914;78;20211;-76
2021/04/16 07:18:13;;;;;;;;;;;;;;;10.15;67.65;101486.14;1803309;79;20211;-74
2021/04/16 07:20:41;;;;;;;;;;;;;;;10.25;67.19;101478.72;1803940;79;20120;-76
2021/04/16 07:23:11;;;;;;;;;;;;;;;10.38;68.79;101490.14;1803903;79;20605;-74
2021/04/16 07:25:46;;;;;;;;;;;;;;;10.42;69.94;101489.08;1804779;79;21358;-77
2021/04/16 07:28:20;;;;;;;;;;;;;;;10.41;69.89;101496.47;1804055;78;20546;-74
2021/04/16 07:30:50;;;;;;;;;;;;;;;10.47;70.26;101497.00;1804335;79;20263;-77
2021/04/16 07:33:33;;;;;;;;;;;;;;;10.43;68.44;101498.06;1802855;79;20279;-74
2021/04/16 07:36:25;;;;;;;;;;;;;;;10.31;67.49;101502.59;1803800;78;20231;-75
2021/04/16 07:39:14;;;;;;;;;;;;;;;10.24;68.45;101503.85;1765984;79;21375;-73
2021/04/16 07:41:44;;;;;;;;;;;;;;;10.16;66.72;101493.47;1804109;78;20129;-74
2021/04/16 07:44:25;;;;;;;;;;;;;;;10.02;63.32;101495.42;1803435;78;20290;-74
2021/04/16 07:46:55;;;;;;;;;;;;;;;9.91;62.95;101495.98;1796666;80;20487;-77
2021/04/16 07:49:28;;;;;;;;;;;;;;;9.89;63.24;101488.72;1799886;79;20227;-76
2021/04/16 07:52:01;;;;;;;;;;;;;;;9.92;62.89;101485.16;1800100;79;21150;-75
2021/04/16 07:54:30;;;;;;;;;;;;;;;9.96;63.39;101487.50;1774526;79;20473;-78
2021/04/16 07:57:10;;;;;;;;;;;;;;;9.93;63.81;101494.59;1800188;79;20124;-75
2021/04/16 07:59:59;;;;;;;;;;;;;;;9.91;64.51;101490.80;1800051;79;20136;-77
2021/04/16 08:02:34;;;;;;;;;;;;;;;9.92;64.44;101483.38;1799857;78;20291;-74
2021/04/16 08:05:17;;;;;;;;;;;;;;;9.87;63.99;101491.86;1798904;79;22213;-78
2021/04/16 08:07:45;;;;;;;;;;;;;;;9.76;62.19;101487.68;1785253;79;20220;-75
2021/04/16 08:10:18;;;;;;;;;;;;;;;9.71;62.67;101490.09;1799574;79;20481;-75
2021/04/16 08:12:46;;;;;;;;;;;;;;;9.69;63.27;101495.37;1798584;79;20422;-76
2021/04/16 08:15:23;;;;;;;;;;;;;;;9.71;63.31;101488.34;1768472;81;20545;-75
2021/04/16 08:17:52;;;;;;;;;;;;;;;9.75;64.06;101482.10;1742826;81;21202;-79
2021/04/16 08:20:24;;;;;;;;;;;;;;;9.91;62.81;101479.58;1790485;80;20212;-78
2021/04/16 08:22:54;;;;;;;;;;;;;;;10.12;60.94;101486.27;1794529;80;20213;-78
2021/04/16 08:25:38;;;;;;;;;;;;;;;10.19;60.19;101492.02;1796952;78;20299;-77
2021/04/16 08:28:21;;;;;;;;;;;;;;;10.20;58.55;101483.33;1783766;80;20513;-73
2021/04/16 08:31:04;;;;;;;;;;;;;;;10.26;58.65;101488.20;1798438;80;22622;-78
2021/04/16 08:33:44;;;;;;;;;;;;;;;10.32;59.03;101491.77;1798142;80;20133;-77
2021/04/16 08:36:29;;;;;;;;;;;;;;;10.47;57.61;101492.26;1798523;79;20248;-76
2021/04/16 08:39:40;;;;;;;;;;;;;;;10.60;59.16;101491.54;1789510;80;20285;-77
2021/04/16 08:42:10;;;;;;;;;;;;;;;10.88;57.98;101496.09;1795790;80;20600;-79
2021/04/16 08:44:49;;;;;;;;;;;;;;;10.84;49.62;101497.66;1800951;79;20165;-76
2021/04/16 08:47:25;;;;;;;;;;;;;;;10.79;51.28;101495.75;1816291;79;20252;-77
2021/04/16 08:49:55;;;;;;;;;;;;;;;10.62;53.35;101507.86;1816548;79;20149;-75
2021/04/16 08:52:47;;;;;;;;;;;;;;;10.50;51.58;101505.91;1816183;79;20291;-77
2021/04/16 08:55:21;;;;;;;;;;;;;;;10.52;51.84;101505.39;1816693;79;20475;-78
2021/04/16 08:58:03;;;;;;;;;;;;;;;10.60;52.44;101509.71;1793929;79;21170;-75
2021/04/16 09:00:37;;;;;;;;;;;;;;;10.65;51.39;101504.74;1816660;78;20220;-77
2021/04/16 09:03:09;;;;;;;;;;;;;;;10.66;50.64;101496.86;1816450;79;20522;-74
2021/04/16 09:05:59;;;;;;;;;;;;;;;10.58;51.98;101505.07;1814073;79;20140;-76
2021/04/16 09:08:37;;;;;;;;;;;;;;;10.53;48.45;101507.05;1817248;79;20268;-74
2021/04/16 09:11:09;;;;;;;;;;;;;;;10.48;49.04;101506.92;1817371;78;21198;-77
2021/04/16 09:13:44;;;;;;;;;;;;;;;10.49;50.24;101504.72;1816659;78;20145;-76
2021/04/16 09:16:19;;;;;;;;;;;;;;;10.56;49.85;101502.99;1812718;79;20199;-75
2021/04/16 09:18:52;;;;;;;;;;;;;;;10.58;49.71;101503.77;1816457;79;20712;-78
2021/04/16 09:21:26;;;;;;;;;;;;;;;10.60;50.15;101512.30;1816092;78;20129;-80
2021/04/16 09:24:08;;;;;;;;;;;;;;;10.63;49.90;101504.36;1815113;79;20220;-75
2021/04/16 09:26:51;;;;;;;;;;;;;;;10.75;50.12;101513.73;1816138;78;20470;-76
2021/04/16 09:29:30;;;;;;;;;;;;;;;10.83;51.47;101495.52;1816863;79;20153;-75
2021/04/16 09:32:03;;;;;;;;;;;;;;;10.91;51.63;101495.92;1817478;79;20323;-78
2021/04/16 09:34:47;;;;;;;;;;;;;;;10.98;53.25;101493.38;1816217;78;20244;-77
2021/04/16 09:37:31;;;;;;;;;;;;;;;11.12;51.55;101493.48;1816143;79;21403;-79
2021/04/16 09:40:15;;;;;;;;;;;;;;;11.13;50.42;101493.86;1816069;79;20296;-77
2021/04/16 09:43:02;;;;;;;;;;;;;;;11.11;51.36;101496.14;1816055;79;20510;-74
2021/04/16 09:45:33;;;;;;;;;;;;;;;11.15;50.84;101479.02;1810375;79;20231;-75
2021/04/16 09:48:07;;;;;;;;;;;;;;;11.21;50.74;101488.67;1800856;79;20279;-75
2021/04/16 09:50:47;;;;;;;;;;;;;;;11.38;49.33;101485.53;1801345;79;21191;-78
2021/04/16 09:53:20;;;;;;;;;;;;;;;11.63;48.63;101484.52;1796599;79;20188;-76
2021/04/16 09:56:01;;;;;;;;;;;;;;;12.44;47.59;101462.84;1801265;79;20160;-76
2021/04/16 09:58:35;;;;;;;;;;;;;;;13.51;46.55;101466.41;1801066;79;20813;-76
2021/04/16 10:01:16;;;;;;;;;;;;;;;14.74;44.04;101467.16;1801166;79;20173;-76
2021/04/16 10:03:54;;;;;;;;;;;;;;;15.72;40.96;101457.80;1800960;78;20738;-75
2021/04/16 10:06:35;;;;;;;;;;;;;;;15.84;39.59;101452.48;1801168;78;20222;-77
2021/04/16 10:09:12;;;;;;;;;;;;;;;16.10;38.23;101460.14;1800946;79;20175;-77
2021/04/16 10:11:50;;;;;;;;;;;;;;;16.51;35.77;101445.14;1801020;79;20286;-76
2021/04/16 10:14:22;;;;;;;;;;;;;;;17.36;35.23;101451.77;1801100;79;20286;-76
2021/04/16 10:17:05;;;;;;;;;;;;;;;18.31;31.65;101453.39;1801388;79;20215;-77
2021/04/16 10:19:38;;;;;;;;;;;;;;;18.70;30.68;101444.36;1801184;79;20223;-75
2021/04/16 10:22:21;;;;;;;;;;;;;;;19.34;30.15;101438.13;1769425;79;20523;-75
2021/04/16 10:41:09;;;;;;;;;;;;;;;18.90;29.45;101442.94;1800774;78;20282;-76
2021/04/16 10:54:52;;;;;;;;;;;;;;;20.46;26.31;101429.80;1829223;77;20146;-76
2021/04/16 12:40:06;;;;;;;;;;;;;;;12.78;44.72;101450.70;1891894;74;21178;-73
2021/04/16 12:42:34;;;;;;;;;;;;;;;12.67;45.73;101452.67;1892051;76;20104;-76
2021/04/16 12:45:03;;;;;;;;;;;;;;;12.60;47.06;101457.06;1892099;76;20148;-74
2021/04/16 12:47:31;;;;;;;;;;;;;;;12.37;47.09;101454.56;1891950;76;20124;-77
2021/04/16 12:50:02;;;;;;;;;;;;;;;12.31;47.45;101465.81;1892196;76;20227;-76
2021/04/16 12:52:30;;;;;;;;;;;;;;;12.25;48.63;101461.82;1892145;74;21234;-74
2021/04/16 12:54:59;;;;;;;;;;;;;;;12.24;48.16;101464.50;1892200;76;20108;-72
2021/04/16 12:57:42;;;;;;;;;;;;;;;12.29;48.63;101452.88;1892409;76;20747;-78
2021/04/16 13:00:13;;;;;;;;;;;;;;;12.25;48.53;101465.73;1892210;76;20136;-77
2021/04/16 13:02:40;;;;;;;;;;;;;;;12.19;46.97;101464.77;1892124;76;20490;-74
2021/04/16 13:05:11;;;;;;;;;;;;;;;12.13;44.85;101462.07;1891844;75;21156;-78
2021/04/16 13:07:39;;;;;;;;;;;;;;;12.00;42.80;101466.78;1891386;76;20163;-75
2021/04/16 13:10:16;;;;;;;;;;;;;;;11.90;42.71;101457.88;1892018;76;20266;-74
2021/04/16 13:12:44;;;;;;;;;;;;;;;11.88;43.09;101459.25;1891675;76;20470;-76
2021/04/16 13:15:13;;;;;;;;;;;;;;;11.98;45.04;101464.29;1891695;75;20128;-78
2021/04/16 13:17:44;;;;;;;;;;;;;;;12.12;45.71;101458.28;1891790;75;21234;-76
2021/04/16 13:20:14;;;;;;;;;;;;;;;12.26;46.04;101456.97;1891649;76;20493;-74
2021/04/16 13:22:42;;;;;;;;;;;;;;;12.37;44.79;101457.17;1891732;76;20124;-75
2021/04/16 13:25:14;;;;;;;;;;;;;;;12.49;45.03;101451.20;1891673;76;20238;-75
2021/04/16 13:27:45;;;;;;;;;;;;;;;12.77;44.04;101444.27;1891676;75;20140;-74
2021/04/16 13:30:14;;;;;;;;;;;;;;;13.09;42.96;101443.95;1891512;76;21356;-75
2021/04/16 13:32:45;;;;;;;;;;;;;;;13.41;41.56;101444.94;1891745;76;20418;-75
2021/04/16 13:35:29;;;;;;;;;;;;;;;13.51;41.54;101445.55;1891552;76;20144;-76
2021/04/16 13:37:58;;;;;;;;;;;;;;;13.41;40.17;101446.24;1891692;76;20247;-80
2021/04/16 13:40:27;;;;;;;;;;;;;;;13.32;38.64;101447.69;1858794;76;20191;-74
2021/04/16 13:42:55;;;;;;;;;;;;;;;13.29;39.25;101445.28;1891572;75;21644;-76
2021/04/16 13:45:23;;;;;;;;;;;;;;;13.38;38.34;101447.75;1887975;76;20479;-75
2021/04/16 13:47:50;;;;;;;;;;;;;;;13.50;37.96;101443.87;1857078;77;20142;-74
2021/04/16 13:50:19;;;;;;;;;;;;;;;13.71;36.09;101448.99;1857041;77;20744;-74
2021/04/16 13:52:48;;;;;;;;;;;;;;;14.30;35.91;101438.40;1868015;75;20476;-75
2021/04/16 13:55:16;;;;;;;;;;;;;;;14.73;35.63;101438.05;1872705;76;21598;-75
2021/04/16 13:57:44;;;;;;;;;;;;;;;15.02;34.64;101433.34;1872732;76;20122;-76
2021/04/16 14:00:17;;;;;;;;;;;;;;;15.26;33.05;101431.55;1872623;76;20487;-75
2021/04/16 14:02:48;;;;;;;;;;;;;;;15.77;32.93;101431.64;1872541;76;20484;-74
2021/04/16 14:05:20;;;;;;;;;;;;;;;16.48;32.02;101436.22;1872864;76;20562;-75
2021/04/16 14:07:48;;;;;;;;;;;;;;;16.39;29.53;101428.14;1872720;76;21085;-75
2021/04/16 14:10:18;;;;;;;;;;;;;;;15.81;30.50;101420.00;1872666;76;20106;-75
2021/04/16 14:12:46;;;;;;;;;;;;;;;15.23;32.01;101427.39;1872672;76;20130;-73
2021/04/16 14:15:15;;;;;;;;;;;;;;;15.07;32.41;101426.00;1872484;76;20114;-73
2021/04/16 14:17:46;;;;;;;;;;;;;;;15.31;31.90;101425.53;1872618;76;20154;-76
2021/04/16 14:20:32;;;;;;;;;;;;;;;15.76;31.77;101427.84;1872715;76;21189;-76
2021/04/16 14:23:03;;;;;;;;;;;;;;;16.62;31.17;101420.28;1872572;76;20485;-75
2021/04/16 14:25:34;;;;;;;;;;;;;;;17.13;30.43;101413.95;1872659;76;20137;-75
2021/04/16 14:28:06;;;;;;;;;;;;;;;17.06;30.54;101424.11;1872523;76;20129;-75
2021/04/16 14:30:35;;;;;;;;;;;;;;;16.36;31.25;101424.92;1871865;76;20134;-76
2021/04/16 14:33:05;;;;;;;;;;;;;;;16.18;30.97;101427.64;1872466;76;21248;-75
2021/04/16 14:35:33;;;;;;;;;;;;;;;15.86;31.41;101419.16;1872551;76;20154;-75
2021/04/16 14:38:02;;;;;;;;;;;;;;;15.85;31.91;101419.30;1872680;76;20141;-75
2021/04/16 14:40:30;;;;;;;;;;;;;;;15.54;32.53;101411.59;1872549;76;20146;-75
2021/04/16 14:42:57;;;;;;;;;;;;;;;15.85;32.41;101417.52;1872670;76;20581;-75
2021/04/16 14:45:28;;;;;;;;;;;;;;;16.12;32.35;101422.41;1872585;76;21177;-75
2021/04/16 14:47:57;;;;;;;;;;;;;;;15.95;32.42;101420.73;1872710;76;20106;-76
2021/04/16 14:50:25;;;;;;;;;;;;;;;15.67;33.12;101418.88;1872642;76;20578;-72
2021/04/16 14:52:55;;;;;;;;;;;;;;;15.41;32.67;101425.69;1861871;76;20134;-75
2021/04/16 14:55:29;;;;;;;;;;;;;;;14.84;32.66;101435.02;1856875;77;20123;-75
2021/04/16 14:57:57;;;;;;;;;;;;;;;14.39;33.58;101430.92;1857004;77;21802;-72
2021/04/16 15:00:26;;;;;;;;;;;;;;;14.15;33.32;101431.63;1856798;77;20137;-76
2021/04/16 15:02:54;;;;;;;;;;;;;;;14.51;33.50;101436.12;1856974;77;20106;-78
2021/04/16 15:05:22;;;;;;;;;;;;;;;14.89;32.29;101449.55;1856880;77;20295;-76
2021/04/16 15:07:56;;;;;;;;;;;;;;;14.74;31.83;101448.38;1856932;77;20248;-72
2021/04/16 15:10:29;;;;;;;;;;;;;;;14.34;32.45;101444.28;1856529;76;22718;-75
2021/04/16 15:12:57;;;;;;;;;;;;;;;13.90;33.22;101451.66;1824138;77;20209;-74
2021/04/16 15:15:45;;;;;;;;;;;;;;;13.57;34.01;101449.05;1856706;77;20197;-74